Time;durP1;ratioP1;P1;durP2;ratioP2;P2;SDS_P1;SDS_P2;PMS_P1;PMS_P2;Temp;Humidity;BMP_temperature;BMP_pressure;BME280_temperature;BME280_humidity;BME280_pressure;Samples;Min_cycle;Max_cycle;Signal;HPM_P1;HPM_P2
2023/09/01 00:00:19;;;;;;;3.60;3.40;;;;;;;20.85;100.00;99956.50;84164;281;137413;-72
2023/09/01 00:02:28;;;;;;;3.80;3.60;;;;;;;20.85;100.00;99960.18;84270;281;22681;-72
2023/09/01 00:04:35;;;;;;;3.70;3.50;;;;;;;20.86;100.00;99961.59;84054;282;137183;-71
2023/09/01 00:06:37;;;;;;;3.10;2.70;;;;;;;20.87;100.00;99968.90;84226;281;22866;-70
2023/09/01 00:08:39;;;;;;;3.20;3.00;;;;;;;20.80;100.00;99963.52;83949;283;136957;-72
2023/09/01 00:10:44;;;;;;;2.90;2.80;;;;;;;20.88;100.00;99968.21;84126;281;22579;-72
2023/09/01 00:12:46;;;;;;;5.20;4.10;;;;;;;20.91;100.00;99973.69;84106;281;137145;-71
2023/09/01 00:14:48;;;;;;;3.40;3.20;;;;;;;20.91;100.00;99974.02;84075;282;22547;-73
2023/09/01 00:16:49;;;;;;;3.60;3.40;;;;;;;20.91;100.00;99972.71;84067;282;136953;-73
2023/09/01 00:18:53;;;;;;;3.80;3.50;;;;;;;20.87;100.00;99975.69;84205;281;22820;-71
2023/09/01 00:21:03;;;;;;;3.80;3.50;;;;;;;20.90;100.00;99983.92;84000;283;138509;-70
2023/09/01 00:23:05;;;;;;;3.40;3.20;;;;;;;20.83;100.00;99984.88;84281;281;22576;-70
2023/09/01 00:25:08;;;;;;;4.90;4.50;;;;;;;20.81;100.00;99991.04;84000;283;137209;-70
2023/09/01 00:27:59;;;;;;;4.50;4.20;;;;;;;20.85;100.00;99990.66;82853;305;546499;-72
2023/09/01 00:30:00;;;;;;;2.90;2.80;;;;;;;21.11;100.00;99993.91;83579;295;136441;-73
2023/09/01 00:32:03;;;;;;;2.50;2.40;;;;;;;21.09;100.00;99995.09;83976;295;22662;-72
2023/09/01 00:34:05;;;;;;;3.10;3.00;;;;;;;21.13;100.00;99991.09;83511;296;23010;-72
2023/09/01 00:36:07;;;;;;;2.80;2.70;;;;;;;21.04;100.00;99986.41;84051;296;137870;-73
2023/09/01 00:38:09;;;;;;;3.20;2.90;;;;;;;21.03;100.00;99996.10;83570;295;22584;-72
2023/09/01 00:40:11;;;;;;;2.90;2.70;;;;;;;20.94;100.00;99999.17;83490;295;139156;-72
2023/09/01 00:42:13;;;;;;;2.70;2.60;;;;;;;20.85;100.00;99996.25;83304;294;430217;-72
2023/09/01 00:44:16;;;;;;;3.00;2.80;;;;;;;20.86;100.00;99996.80;83941;293;137026;-72
2023/09/01 00:46:18;;;;;;;3.90;3.60;;;;;;;20.76;100.00;99985.65;83590;294;23284;-72
2023/09/01 00:48:20;;;;;;;5.00;3.10;;;;;;;20.82;100.00;99998.13;83881;288;136967;-73
2023/09/01 00:50:23;;;;;;;5.00;4.60;;;;;;;20.78;100.00;99999.48;84118;289;22568;-72
2023/09/01 00:52:25;;;;;;;3.30;3.00;;;;;;;20.73;100.00;99999.40;83923;287;136684;-71
2023/09/01 00:54:27;;;;;;;5.00;3.30;;;;;;;20.82;100.00;99986.45;83801;289;22626;-72
2023/09/01 00:56:29;;;;;;;3.70;3.50;;;;;;;20.75;100.00;99988.74;83955;287;136817;-72
2023/09/01 00:58:31;;;;;;;5.80;3.80;;;;;;;20.71;100.00;99991.21;84279;288;22574;-71
2023/09/01 01:00:34;;;;;;;3.90;3.70;;;;;;;20.63;100.00;99985.61;83624;288;136904;-73
2023/09/01 01:02:36;;;;;;;5.70;4.90;;;;;;;20.62;100.00;99986.78;84160;287;22714;-72
2023/09/01 01:04:38;;;;;;;4.90;4.60;;;;;;;20.61;100.00;99986.73;83832;288;136763;-69
2023/09/01 01:07:08;;;;;;;4.00;3.50;;;;;;;20.59;100.00;99991.62;83778;289;25180;-72
2023/09/01 01:09:47;;;;;;;4.00;3.60;;;;;;;20.53;100.00;99992.39;83708;288;137664;-71
2023/09/01 01:11:56;;;;;;;4.20;3.80;;;;;;;20.41;100.00;99994.60;83842;288;24128;-72
2023/09/01 01:14:04;;;;;;;4.50;4.20;;;;;;;20.39;100.00;99995.30;83846;277;136582;-73
2023/09/01 01:16:06;;;;;;;4.30;4.00;;;;;;;20.38;100.00;99998.48;83916;288;137081;-74
2023/09/01 01:18:11;;;;;;;4.50;4.10;;;;;;;20.38;100.00;100004.16;84279;288;22658;-72
2023/09/01 01:20:37;;;;;;;3.70;3.50;;;;;;;20.37;100.00;100004.91;84982;289;136903;-71
2023/09/01 01:23:14;;;;;;;3.70;3.40;;;;;;;20.33;100.00;100003.33;85187;288;23054;-72
2023/09/01 01:25:17;;;;;;;4.50;4.20;;;;;;;20.31;100.00;99997.85;84531;288;136823;-74
2023/09/01 01:27:19;;;;;;;3.60;3.50;;;;;;;20.30;100.00;100000.65;84121;280;25259;-73
2023/09/01 01:29:21;;;;;;;4.10;3.80;;;;;;;20.28;100.00;100002.52;84053;287;137961;-74
2023/09/01 01:31:25;;;;;;;5.10;4.40;;;;;;;20.28;100.00;100007.77;84132;287;24110;-75
2023/09/01 01:33:50;;;;;;;4.40;4.00;;;;;;;20.25;100.00;100008.20;84256;286;136775;-73
2023/09/01 01:36:03;;;;;;;3.70;3.50;;;;;;;20.30;100.00;100009.20;84135;288;22555;-73
2023/09/01 01:38:20;;;;;;;4.00;3.50;;;;;;;20.34;100.00;100006.95;84141;285;25374;-73
2023/09/01 01:40:24;;;;;;;4.30;4.00;;;;;;;20.29;100.00;100006.06;83889;287;137825;-75
2023/09/01 01:42:28;;;;;;;4.50;4.20;;;;;;;20.27;100.00;100001.13;84156;286;25315;-72
2023/09/01 01:44:33;;;;;;;;;;;;;;;20.28;100.00;99997.83;84143;286;136928;-73
2023/09/01 01:46:38;;;;;;;4.10;3.90;;;;;;;20.25;100.00;99996.77;84317;286;23850;-72
2023/09/01 01:48:40;;;;;;;5.00;4.60;;;;;;;20.17;100.00;99993.16;84151;286;136833;-73
2023/09/01 01:50:42;;;;;;;5.00;4.60;;;;;;;20.12;100.00;99992.80;84107;287;22552;-73
2023/09/01 01:52:44;;;;;;;5.20;4.70;;;;;;;20.10;100.00;99993.98;83971;286;136566;-71
2023/09/01 01:54:46;;;;;;;5.20;4.90;;;;;;;20.10;100.00;99992.13;83998;288;22553;-72
2023/09/01 01:56:49;;;;;;;4.30;3.90;;;;;;;20.10;100.00;99993.05;83970;287;137818;-71
2023/09/01 01:58:52;;;;;;;6.50;4.90;;;;;;;20.12;100.00;99995.55;84146;287;22551;-71
2023/09/01 02:00:54;;;;;;;5.20;4.80;;;;;;;20.12;100.00;99992.73;84037;286;136678;-71
2023/09/01 02:02:56;;;;;;;3.60;3.40;;;;;;;20.07;100.00;99986.27;84101;287;26201;-72
2023/09/01 02:04:58;;;;;;;4.40;4.20;;;;;;;19.99;100.00;99987.02;84064;285;138176;-74
2023/09/01 02:06:59;;;;;;;5.20;4.50;;;;;;;19.94;100.00;99987.59;84037;285;22605;-72
2023/09/01 02:09:03;;;;;;;5.60;5.00;;;;;;;19.90;100.00;99993.72;84011;286;136776;-71
2023/09/01 02:11:04;;;;;;;4.40;4.20;;;;;;;19.89;100.00;100001.27;84205;286;26445;-72
2023/09/01 02:13:06;;;;;;;4.70;4.30;;;;;;;19.84;100.00;100002.81;84047;287;137019;-69
2023/09/01 02:15:09;;;;;;;5.00;4.70;;;;;;;19.81;100.00;100012.41;84033;286;22548;-72
2023/09/01 02:17:11;;;;;;;4.90;4.60;;;;;;;19.83;100.00;100010.97;84005;286;138057;-71
2023/09/01 02:19:14;;;;;;;5.80;5.30;;;;;;;19.79;100.00;100015.32;84021;285;22561;-70
2023/09/01 02:21:21;;;;;;;4.60;4.30;;;;;;;19.79;100.00;100020.71;84077;285;137526;-71
2023/09/01 02:23:24;;;;;;;4.90;4.50;;;;;;;19.77;100.00;100019.68;84209;285;23391;-75
2023/09/01 02:25:25;;;;;;;4.00;3.80;;;;;;;19.79;100.00;100024.95;84003;285;136813;-72
2023/09/01 02:27:28;;;;;;;4.90;4.50;;;;;;;19.82;100.00;100030.80;84077;287;22566;-72
2023/09/01 02:29:31;;;;;;;5.00;4.70;;;;;;;19.80;100.00;100031.87;84041;286;137532;-72
2023/09/01 02:31:34;;;;;;;4.90;4.50;;;;;;;19.75;100.00;100033.08;84046;285;23056;-73
2023/09/01 02:33:37;;;;;;;5.10;4.70;;;;;;;19.74;100.00;100035.54;83981;286;137888;-69
2023/09/01 02:35:44;;;;;;;5.80;5.20;;;;;;;19.70;100.00;100037.48;84121;285;22580;-70
2023/09/01 02:37:46;;;;;;;5.00;4.60;;;;;;;19.68;100.00;100036.49;83932;285;136970;-74
2023/09/01 02:39:48;;;;;;;4.60;4.30;;;;;;;19.63;100.00;100035.48;83926;286;22562;-74
2023/09/01 02:41:50;;;;;;;5.00;4.70;;;;;;;19.61;100.00;100038.75;84223;286;137228;-69
2023/09/01 02:43:53;;;;;;;4.60;4.30;;;;;;;19.63;100.00;100034.07;84065;287;22563;-73
2023/09/01 02:45:55;;;;;;;4.40;4.00;;;;;;;19.62;100.00;100027.40;84293;285;137613;-72
2023/09/01 02:47:57;;;;;;;5.40;4.90;;;;;;;19.60;100.00;100027.61;84144;285;22638;-72
2023/09/01 02:49:59;;;;;;;6.40;5.00;;;;;;;19.52;100.00;100023.79;84082;285;137609;-72
2023/09/01 02:52:04;;;;;;;;;;;;;;;19.50;100.00;100023.33;84088;287;137360;-74
2023/09/01 02:54:07;;;;;;;4.80;4.50;;;;;;;19.44;100.00;100025.06;84374;285;25131;-75
2023/09/01 02:56:09;;;;;;;5.40;5.10;;;;;;;19.44;100.00;100029.02;84270;285;137774;-72
2023/09/01 02:58:11;;;;;;;5.10;4.70;;;;;;;19.38;100.00;100033.37;84055;285;23745;-75
2023/09/01 03:00:18;;;;;;;5.10;4.70;;;;;;;19.35;100.00;100035.67;84220;286;136773;-72
2023/09/01 03:02:21;;;;;;;5.50;5.20;;;;;;;19.37;100.00;100035.97;84120;285;22595;-71
2023/09/01 03:04:23;;;;;;;4.20;4.00;;;;;;;19.41;100.00;100041.30;83854;285;136933;-73
2023/09/01 03:06:25;;;;;;;5.60;4.90;;;;;;;19.41;100.00;100040.77;84208;285;22549;-75
2023/09/01 03:08:27;;;;;;;4.50;4.20;;;;;;;19.42;100.00;100038.34;83958;286;137637;-73
2023/09/01 03:10:29;;;;;;;5.00;4.70;;;;;;;19.42;100.00;100040.29;83866;286;22553;-73
2023/09/01 03:12:33;;;;;;;5.80;5.20;;;;;;;19.39;100.00;100041.39;83992;285;136723;-71
2023/09/01 03:14:35;;;;;;;5.50;5.20;;;;;;;19.40;100.00;100040.91;84174;285;25332;-73
2023/09/01 03:16:36;;;;;;;5.80;5.40;;;;;;;19.38;100.00;100044.40;84260;285;137141;-74
2023/09/01 03:18:38;;;;;;;6.20;5.50;;;;;;;19.36;100.00;100043.79;83999;285;22586;-73
2023/09/01 03:20:40;;;;;;;5.30;4.90;;;;;;;19.37;100.00;100041.80;83908;285;138322;-75
2023/09/01 03:22:42;;;;;;;6.00;5.60;;;;;;;19.31;100.00;100044.98;84114;287;22553;-72
2023/09/01 03:24:44;;;;;;;5.00;4.60;;;;;;;19.34;100.00;100047.92;84129;285;136873;-71
2023/09/01 03:26:46;;;;;;;6.40;5.90;;;;;;;19.38;100.00;100044.52;84172;285;22685;-74
2023/09/01 03:28:48;;;;;;;7.10;6.40;;;;;;;19.39;100.00;100049.66;84001;285;138436;-72
2023/09/01 03:30:50;;;;;;;5.50;5.00;;;;;;;19.39;100.00;100045.01;83907;285;22636;-73
2023/09/01 03:32:52;;;;;;;5.60;5.10;;;;;;;19.38;100.00;100046.36;84260;286;137047;-71
2023/09/01 03:34:55;;;;;;;6.00;5.50;;;;;;;19.35;100.00;100046.80;84110;286;22565;-71
2023/09/01 03:36:57;;;;;;;4.70;4.40;;;;;;;19.41;100.00;100044.42;84006;285;137990;-73
2023/09/01 03:38:59;;;;;;;6.10;5.60;;;;;;;19.44;100.00;100043.39;84029;287;25530;-73
2023/09/01 03:41:04;;;;;;;7.80;6.10;;;;;;;19.43;100.00;100040.30;83986;285;137770;-73
2023/09/01 03:43:07;;;;;;;5.60;5.30;;;;;;;19.40;100.00;100045.07;84167;285;22561;-72
2023/09/01 03:45:09;;;;;;;6.70;6.20;;;;;;;19.37;100.00;100047.05;84169;285;137032;-74
2023/09/01 03:47:13;;;;;;;5.70;5.30;;;;;;;19.35;100.00;100049.83;84014;285;24301;-72
2023/09/01 03:49:14;;;;;;;6.60;6.00;;;;;;;19.33;100.00;100054.41;83827;285;137712;-72
2023/09/01 03:51:17;;;;;;;6.50;6.00;;;;;;;19.38;100.00;100056.84;84008;285;22569;-70
2023/09/01 03:53:19;;;;;;;5.30;5.00;;;;;;;19.37;100.00;100062.13;84103;285;136934;-73
2023/09/01 03:55:20;;;;;;;7.70;6.10;;;;;;;19.38;100.00;100062.24;84135;285;23779;-73
2023/09/01 03:57:22;;;;;;;7.00;6.10;;;;;;;19.36;100.00;100064.48;84017;285;136955;-69
2023/09/01 03:59:24;;;;;;;6.50;6.00;;;;;;;19.34;100.00;100069.61;84098;285;25180;-68
2023/09/01 04:01:26;;;;;;;5.70;5.20;;;;;;;19.40;100.00;100077.18;83941;285;137277;-71
2023/09/01 04:03:28;;;;;;;6.60;6.10;;;;;;;19.40;100.00;100075.77;84054;287;22548;-72
2023/09/01 04:05:30;;;;;;;6.10;5.70;;;;;;;19.42;100.00;100078.50;83869;285;137113;-72
2023/09/01 04:07:31;;;;;;;6.00;5.50;;;;;;;19.43;100.00;100076.73;84075;285;25687;-72
2023/09/01 04:09:35;;;;;;;6.10;5.70;;;;;;;19.43;100.00;100083.54;83964;285;138007;-71
2023/09/01 04:11:37;;;;;;;5.90;5.30;;;;;;;19.45;100.00;100077.52;84507;285;25221;-74
2023/09/01 04:13:39;;;;;;;6.30;5.90;;;;;;;19.49;100.00;100078.84;84306;286;138300;-73
2023/09/01 04:15:41;;;;;;;6.70;6.10;;;;;;;19.47;100.00;100079.03;84451;281;25367;-75
2023/09/01 04:17:43;;;;;;;6.10;5.70;;;;;;;19.45;100.00;100077.35;83815;285;137280;-74
2023/09/01 04:19:47;;;;;;;6.20;5.80;;;;;;;19.43;100.00;100077.10;83903;285;25256;-72
2023/09/01 04:21:49;;;;;;;6.80;6.30;;;;;;;19.42;100.00;100074.88;86476;286;137119;-74
2023/09/01 04:23:51;;;;;;;5.20;4.80;;;;;;;19.47;100.00;100073.74;86757;285;22248;-74
2023/09/01 04:25:53;;;;;;;6.10;5.20;;;;;;;19.45;100.00;100074.27;85484;270;137299;-75
2023/09/01 04:27:56;;;;;;;6.10;5.60;;;;;;;19.49;100.00;100071.94;84227;285;22587;-73
2023/09/01 04:29:58;;;;;;;6.80;6.20;;;;;;;19.50;100.00;100072.27;84285;275;137324;-78
2023/09/01 04:32:12;;;;;;;6.50;6.00;;;;;;;19.53;100.00;100075.10;83869;285;137452;-70
2023/09/01 04:34:14;;;;;;;6.00;5.50;;;;;;;19.55;100.00;100076.91;84014;285;24121;-75
2023/09/01 04:36:16;;;;;;;6.10;5.70;;;;;;;19.55;100.00;100077.02;83977;285;137916;-78
2023/09/01 04:38:18;;;;;;;6.70;6.20;;;;;;;19.54;100.00;100080.15;84191;285;22627;-76
2023/09/01 04:40:20;;;;;;;7.00;5.60;;;;;;;19.53;100.00;100084.45;83974;285;137455;-69
2023/09/01 04:42:22;;;;;;;5.40;4.90;;;;;;;19.55;100.00;100086.81;84088;285;22566;-70
2023/09/01 04:44:24;;;;;;;5.20;4.90;;;;;;;19.58;100.00;100092.14;83974;285;136655;-71
2023/09/01 04:46:26;;;;;;;7.10;6.50;;;;;;;19.62;100.00;100093.05;84080;285;25829;-67
2023/09/01 04:48:28;;;;;;;7.80;6.30;;;;;;;19.64;100.00;100090.48;83960;286;137656;-69
2023/09/01 04:50:31;;;;;;;7.10;6.30;;;;;;;19.68;100.00;100096.30;84100;285;22548;-71
2023/09/01 04:52:33;;;;;;;6.20;5.70;;;;;;;19.69;100.00;100094.92;83937;285;137152;-71
2023/09/01 04:54:44;;;;;;;6.40;6.00;;;;;;;19.72;100.00;100099.00;84073;285;22606;-74
2023/09/01 04:56:47;;;;;;;5.90;5.50;;;;;;;19.69;100.00;100099.17;83900;288;137389;-75
2023/09/01 04:58:48;;;;;;;6.00;5.20;;;;;;;19.69;100.00;100102.41;84039;286;22649;-62
2023/09/01 05:00:54;;;;;;;6.00;5.50;;;;;;;19.70;100.00;100102.48;84003;283;137398;-66
2023/09/01 05:02:56;;;;;;;6.40;5.80;;;;;;;19.72;100.00;100103.06;84020;286;22584;-62
2023/09/01 05:04:59;;;;;;;5.70;5.30;;;;;;;19.79;100.00;100109.75;84009;285;137487;-67
2023/09/01 05:07:01;;;;;;;6.30;5.80;;;;;;;19.82;100.00;100108.90;83919;285;24254;-68
2023/09/01 05:09:03;;;;;;;7.60;6.90;;;;;;;19.83;100.00;100115.25;84053;285;137354;-68
2023/09/01 05:11:05;;;;;;;5.20;4.90;;;;;;;19.89;100.00;100121.75;84025;286;24955;-65
2023/09/01 05:13:10;;;;;;;5.60;5.20;;;;;;;19.98;100.00;100121.40;83869;286;136750;-70
2023/09/01 05:15:12;;;;;;;7.10;6.50;;;;;;;20.08;100.00;100118.14;84117;286;22564;-68
2023/09/01 05:17:15;;;;;;;5.80;5.40;;;;;;;20.15;100.00;100123.56;83996;285;137128;-68
2023/09/01 05:19:17;;;;;;;6.80;6.20;;;;;;;20.26;100.00;100122.15;83978;287;22657;-66
2023/09/01 05:21:19;;;;;;;5.80;5.40;;;;;;;20.33;100.00;100119.06;83939;285;137350;-63
2023/09/01 05:23:21;;;;;;;6.10;5.60;;;;;;;20.39;100.00;100122.46;83937;286;24065;-64
2023/09/01 05:25:23;;;;;;;6.00;5.50;;;;;;;20.47;100.00;100125.23;83799;285;137495;-62
2023/09/01 05:27:26;;;;;;;6.20;5.80;;;;;;;20.58;100.00;100127.54;84005;285;22548;-64
2023/09/01 05:29:30;;;;;;;6.20;5.80;;;;;;;20.64;100.00;100129.28;84048;285;138447;-64
2023/09/01 05:31:32;;;;;;;6.60;6.10;;;;;;;20.66;100.00;100131.04;83978;286;22579;-66
2023/09/01 05:33:35;;;;;;;6.70;5.80;;;;;;;20.68;100.00;100138.89;84033;285;138262;-67
2023/09/01 05:35:37;;;;;;;4.80;4.60;;;;;;;20.69;100.00;100139.19;83971;285;23721;-65
2023/09/01 05:37:38;;;;;;;6.40;5.90;;;;;;;20.78;100.00;100137.02;83843;286;138379;-66
2023/09/01 05:39:42;;;;;;;8.70;6.00;;;;;;;20.82;100.00;100135.20;84006;286;22707;-65
2023/09/01 05:41:44;;;;;;;6.00;5.50;;;;;;;20.89;100.00;100135.61;86620;285;137183;-64
2023/09/01 05:43:47;;;;;;;5.70;5.40;;;;;;;20.95;100.00;100130.89;86351;285;22552;-72
2023/09/01 05:45:52;;;;;;;9.00;6.00;;;;;;;21.03;100.00;100135.82;83954;285;136866;-72
2023/09/01 05:47:58;;;;;;;6.40;6.00;;;;;;;21.10;100.00;100135.73;84137;287;22565;-70
2023/09/01 05:50:04;;;;;;;5.70;5.40;;;;;;;21.23;100.00;100139.77;83959;285;138383;-67
2023/09/01 05:52:05;;;;;;;6.20;5.60;;;;;;;21.44;100.00;100132.98;83661;287;137075;-68
2023/09/01 05:54:08;;;;;;;5.50;5.20;;;;;;;21.73;100.00;100129.56;83925;286;24121;-67
2023/09/01 05:56:10;;;;;;;6.20;5.60;;;;;;;22.08;100.00;100129.95;86637;286;139560;-66
2023/09/01 05:58:11;;;;;;;5.90;5.40;;;;;;;22.44;100.00;100127.48;86589;282;22577;-66
2023/09/01 06:00:14;;;;;;;6.00;5.60;;;;;;;22.90;100.00;100125.58;84134;282;138760;-68
2023/09/01 06:02:16;;;;;;;6.70;6.30;;;;;;;23.29;100.00;100120.86;84197;283;22585;-68
2023/09/01 06:04:18;;;;;;;6.00;5.60;;;;;;;23.61;99.45;100120.81;84044;284;137096;-67
2023/09/01 06:06:20;;;;;;;6.70;5.30;;;;;;;23.79;98.52;100114.23;84276;281;22593;-67
2023/09/01 06:08:22;;;;;;;5.60;5.20;;;;;;;24.02;97.46;100115.41;84131;281;138076;-67
2023/09/01 06:10:24;;;;;;;5.50;5.10;;;;;;;24.24;96.19;100120.20;84242;283;25313;-68
2023/09/01 06:12:26;;;;;;;5.60;5.10;;;;;;;24.26;94.85;100120.34;84033;283;137097;-66
2023/09/01 06:14:28;;;;;;;4.90;4.50;;;;;;;24.20;94.45;100122.84;84301;281;22575;-68
2023/09/01 06:16:30;;;;;;;5.40;5.00;;;;;;;23.97;95.68;100116.48;84250;281;138392;-67
2023/09/01 06:18:32;;;;;;;5.70;5.30;;;;;;;23.65;97.09;100118.07;84079;283;22659;-67
2023/09/01 06:20:34;;;;;;;5.50;5.10;;;;;;;23.43;98.31;100117.02;84108;281;136869;-69
2023/09/01 06:22:36;;;;;;;5.00;4.70;;;;;;;23.41;98.74;100120.25;84185;282;25196;-66
2023/09/01 06:24:38;;;;;;;5.30;4.90;;;;;;;23.29;99.06;100114.54;84151;282;137538;-68
2023/09/01 06:26:40;;;;;;;5.70;5.30;;;;;;;23.28;99.73;100124.39;84269;281;25220;-68
2023/09/01 06:28:42;;;;;;;6.10;5.50;;;;;;;23.19;100.00;100127.09;84150;282;137422;-67
2023/09/01 06:30:44;;;;;;;5.60;5.20;;;;;;;23.02;100.00;100125.34;84375;281;24099;-67
2023/09/01 06:32:46;;;;;;;4.70;4.40;;;;;;;22.93;100.00;100129.21;84262;281;137312;-64
2023/09/01 06:34:50;;;;;;;4.80;4.50;;;;;;;22.89;100.00;100127.91;84485;283;22799;-69
2023/09/01 06:36:52;;;;;;;5.30;4.90;;;;;;;22.94;100.00;100123.61;84216;274;137369;-67
2023/09/01 06:38:54;;;;;;;4.80;4.40;;;;;;;22.95;100.00;100125.23;84298;281;22564;-71
2023/09/01 06:40:56;;;;;;;5.10;4.80;;;;;;;22.90;100.00;100126.72;84196;282;138458;-67
2023/09/01 06:42:58;;;;;;;5.90;5.40;;;;;;;22.79;100.00;100129.40;84183;283;23584;-67
2023/09/01 06:45:00;;;;;;;4.10;3.90;;;;;;;22.77;100.00;100132.83;84098;282;141118;-66
2023/09/01 06:47:03;;;;;;;5.10;4.70;;;;;;;22.82;100.00;100131.19;84252;282;22548;-69
2023/09/01 06:49:04;;;;;;;5.20;4.80;;;;;;;22.80;100.00;100132.77;84201;281;137410;-68
2023/09/01 06:51:06;;;;;;;5.30;5.00;;;;;;;22.76;100.00;100131.96;84156;282;24105;-67
2023/09/01 06:53:08;;;;;;;6.30;4.80;;;;;;;22.74;100.00;100132.29;84058;283;137672;-66
2023/09/01 06:55:11;;;;;;;4.70;4.50;;;;;;;22.77;100.00;100129.68;84195;271;22742;-67
2023/09/01 06:57:13;;;;;;;5.70;5.40;;;;;;;22.82;100.00;100133.73;84168;281;138272;-66
2023/09/01 06:59:15;;;;;;;5.10;4.80;;;;;;;22.76;100.00;100132.77;84226;281;25251;-66
2023/09/01 07:01:17;;;;;;;5.70;5.20;;;;;;;22.70;100.00;100136.42;84168;281;137551;-67
2023/09/01 07:03:19;;;;;;;5.50;5.00;;;;;;;22.64;100.00;100138.98;84279;282;22542;-67
2023/09/01 07:05:21;;;;;;;5.60;5.20;;;;;;;22.58;100.00;100135.14;84127;282;137256;-69
2023/09/01 07:07:25;;;;;;;4.90;4.60;;;;;;;22.53;100.00;100138.62;84243;281;22813;-68
2023/09/01 07:09:27;;;;;;;4.20;4.00;;;;;;;22.46;100.00;100134.55;84167;278;137233;-67
2023/09/01 07:11:29;;;;;;;5.30;4.90;;;;;;;22.45;100.00;100130.58;84213;282;23003;-68
2023/09/01 07:13:32;;;;;;;5.00;4.60;;;;;;;22.41;100.00;100130.31;84144;283;137104;-67
2023/09/01 07:15:34;;;;;;;4.40;4.10;;;;;;;22.43;100.00;100137.27;84266;281;24225;-65
2023/09/01 07:17:37;;;;;;;4.40;4.20;;;;;;;22.44;100.00;100131.72;84286;281;136924;-69
2023/09/01 07:19:39;;;;;;;4.10;3.90;;;;;;;22.43;100.00;100124.55;84276;282;22611;-69
2023/09/01 07:21:41;;;;;;;4.90;4.50;;;;;;;22.59;100.00;100133.07;84189;281;137533;-62
2023/09/01 07:23:43;;;;;;;5.60;4.30;;;;;;;22.64;100.00;100130.95;84247;281;22548;-69
2023/09/01 07:25:45;;;;;;;4.70;4.40;;;;;;;22.71;100.00;100131.80;84184;282;137331;-69
2023/09/01 07:27:47;;;;;;;4.90;4.60;;;;;;;22.72;100.00;100127.84;84084;284;25139;-69
2023/09/01 07:29:49;;;;;;;4.90;4.60;;;;;;;22.73;100.00;100123.88;84406;282;138555;-67
2023/09/01 07:31:53;;;;;;;4.10;3.90;;;;;;;22.81;100.00;100130.37;84179;282;27441;-69
2023/09/01 07:33:55;;;;;;;3.90;3.60;;;;;;;22.87;99.98;100127.97;84283;281;137559;-68
2023/09/01 07:35:57;;;;;;;4.20;4.00;;;;;;;22.92;98.96;100134.64;84243;283;22583;-69
2023/09/01 07:38:02;;;;;;;4.10;3.90;;;;;;;22.93;98.28;100133.33;84191;282;137272;-63
2023/09/01 07:40:05;;;;;;;4.40;4.20;;;;;;;22.93;98.12;100131.98;84234;252;137548;-64
2023/09/01 07:42:07;;;;;;;4.80;4.50;;;;;;;22.97;97.50;100123.65;84185;282;22580;-67
2023/09/01 07:44:16;;;;;;;4.40;4.00;;;;;;;23.05;96.91;100127.62;84174;282;136597;-68
2023/09/01 07:46:18;;;;;;;4.70;4.30;;;;;;;23.16;96.26;100125.91;84120;283;22814;-67
2023/09/01 07:48:19;;;;;;;3.60;3.40;;;;;;;23.28;95.35;100126.73;84122;281;137323;-69
2023/09/01 07:50:23;;;;;;;4.20;4.00;;;;;;;23.38;94.49;100131.43;84332;281;25154;-67
2023/09/01 07:52:25;;;;;;;3.80;3.40;;;;;;;23.47;93.60;100128.71;84048;261;137157;-67
2023/09/01 07:54:27;;;;;;;3.40;3.20;;;;;;;23.53;92.35;100119.39;84084;284;23755;-65
2023/09/01 07:56:29;;;;;;;3.70;3.40;;;;;;;23.55;91.14;100130.81;84018;283;137387;-66
2023/09/01 07:58:31;;;;;;;3.50;3.30;;;;;;;23.54;91.31;100129.72;84085;284;25459;-66
2023/09/01 08:00:35;;;;;;;3.30;2.90;;;;;;;23.55;90.78;100128.63;84183;282;136009;-66
2023/09/01 08:02:37;;;;;;;3.40;3.30;;;;;;;23.57;90.69;100129.98;84235;281;25188;-65
2023/09/01 08:04:39;;;;;;;3.30;3.10;;;;;;;23.63;89.98;100126.45;84201;278;136153;-64
2023/09/01 08:06:43;;;;;;;3.40;3.20;;;;;;;23.60;89.68;100126.85;84242;283;25272;-65
2023/09/01 08:08:45;;;;;;;3.00;2.80;;;;;;;23.63;89.06;100126.73;84247;282;136472;-68
2023/09/01 08:10:47;;;;;;;3.40;3.20;;;;;;;23.61;88.71;100133.21;84190;283;25220;-67
2023/09/01 08:12:50;;;;;;;4.70;3.30;;;;;;;23.56;88.54;100132.77;84120;282;135652;-64
2023/09/01 08:14:52;;;;;;;2.90;2.80;;;;;;;23.56;88.30;100124.48;84412;281;23654;-70
2023/09/01 08:16:54;;;;;;;3.20;3.00;;;;;;;23.52;87.23;100128.98;84158;282;136583;-68
2023/09/01 08:18:58;;;;;;;3.40;3.20;;;;;;;23.48;86.55;100130.56;84321;282;22548;-66
2023/09/01 08:21:05;;;;;;;3.20;3.10;;;;;;;23.46;87.47;100131.01;84230;282;137046;-70
2023/09/01 08:23:07;;;;;;;4.60;4.00;;;;;;;23.45;88.42;100127.75;84139;282;24175;-67
2023/09/01 08:25:09;;;;;;;3.50;3.30;;;;;;;23.45;89.12;100131.61;84153;281;137009;-69
2023/09/01 08:27:11;;;;;;;3.80;3.50;;;;;;;23.50;88.94;100125.22;84141;282;22575;-67
2023/09/01 08:29:14;;;;;;;8.00;3.20;;;;;;;23.59;87.73;100122.73;84434;281;136283;-67
2023/09/01 08:31:16;;;;;;;2.30;2.10;;;;;;;23.61;85.12;100129.41;84175;283;25776;-68
2023/09/01 08:33:21;;;;;;;2.40;2.30;;;;;;;23.62;85.14;100132.77;84235;282;136343;-68
2023/09/01 08:35:23;;;;;;;2.70;2.60;;;;;;;23.71;84.96;100132.56;84256;283;23742;-67
2023/09/01 08:37:24;;;;;;;3.20;3.00;;;;;;;23.72;84.77;100139.69;84109;284;136392;-66
2023/09/01 08:39:26;;;;;;;3.90;3.20;;;;;;;23.77;85.35;100135.42;84199;283;25840;-67
2023/09/01 08:41:29;;;;;;;3.90;3.60;;;;;;;23.77;85.35;100138.26;83606;282;583953;-67
2023/09/01 08:43:38;;;;;;;3.00;2.90;;;;;;;23.78;85.07;100137.33;84199;283;22673;-70
2023/09/01 08:45:41;;;;;;;2.80;2.60;;;;;;;23.88;84.98;100135.27;84083;283;137310;-70
2023/09/01 08:47:45;;;;;;;3.80;3.60;;;;;;;23.91;84.61;100135.91;84304;282;24111;-65
2023/09/01 08:49:50;;;;;;;3.80;3.40;;;;;;;23.87;85.11;100134.50;84058;284;135978;-68
2023/09/01 08:51:55;;;;;;;2.90;2.80;;;;;;;23.92;84.48;100136.55;84194;283;24144;-69
2023/09/01 08:53:58;;;;;;;3.40;3.20;;;;;;;23.99;83.69;100136.98;84241;281;136295;-70
2023/09/01 08:56:00;;;;;;;2.40;2.30;;;;;;;24.04;83.83;100142.34;84260;282;22580;-67
2023/09/01 08:58:03;;;;;;;2.80;2.70;;;;;;;24.00;83.97;100142.42;84169;282;136014;-68
2023/09/01 09:00:07;;;;;;;3.40;3.20;;;;;;;24.02;83.62;100142.09;84220;281;136569;-71
2023/09/01 09:02:09;;;;;;;3.20;3.00;;;;;;;24.08;82.84;100138.56;84338;270;22546;-70
2023/09/01 09:04:11;;;;;;;4.00;3.80;;;;;;;24.12;82.85;100140.77;84269;281;137174;-70
2023/09/01 09:06:16;;;;;;;3.30;3.20;;;;;;;24.17;82.61;100136.86;84376;281;22566;-64
2023/09/01 09:08:20;;;;;;;3.50;3.30;;;;;;;24.28;82.14;100136.23;84138;282;136689;-65
2023/09/01 09:10:32;;;;;;;4.30;4.00;;;;;;;24.36;82.21;100136.11;84150;282;25210;-67
2023/09/01 09:12:43;;;;;;;3.70;3.50;;;;;;;24.48;81.31;100137.54;84238;281;136586;-67
2023/09/01 09:14:55;;;;;;;4.00;3.70;;;;;;;24.47;80.37;100136.46;84176;283;25437;-68
2023/09/01 09:17:00;;;;;;;4.10;3.70;;;;;;;24.46;80.07;100138.86;84105;282;136140;-67
2023/09/01 09:19:10;;;;;;;4.00;3.90;;;;;;;24.41;80.19;100139.13;84236;281;22545;-67
2023/09/01 09:21:30;;;;;;;3.90;3.70;;;;;;;24.39;80.18;100137.40;84112;283;136502;-68
2023/09/01 09:23:44;;;;;;;4.50;4.00;;;;;;;24.36;80.58;100136.50;84214;281;24252;-69
2023/09/01 09:25:46;;;;;;;3.80;3.60;;;;;;;24.32;80.08;100134.80;84323;281;136293;-67
2023/09/01 09:27:48;;;;;;;3.90;3.60;;;;;;;24.29;80.30;100136.02;84235;282;22562;-66
2023/09/01 09:29:50;;;;;;;3.90;3.70;;;;;;;24.27;81.00;100138.14;84203;281;136490;-70
2023/09/01 09:31:52;;;;;;;3.80;3.70;;;;;;;24.33;81.34;100136.46;84246;282;25230;-66
2023/09/01 09:33:54;;;;;;;4.80;4.40;;;;;;;24.42;80.54;100140.65;84126;283;136320;-69